sensor_id;sensor_type;location;lat;lon;timestamp;P1;durP1;ratioP1;P2;durP2;ratioP2
34920;SDS011;21128;50.016;20.002;2023-02-10T00:01:08;44.90;;;19.73;;
34920;SDS011;21128;50.016;20.002;2023-02-10T00:03:37;40.53;;;19.20;;
34920;SDS011;21128;50.016;20.002;2023-02-10T00:06:05;43.87;;;19.10;;
34920;SDS011;21128;50.016;20.002;2023-02-10T00:08:33;34.15;;;16.60;;
34920;SDS011;21128;50.016;20.002;2023-02-10T00:11:06;38.07;;;17.93;;
34920;SDS011;21128;50.016;20.002;2023-02-10T00:13:37;40.40;;;16.77;;
34920;SDS011;21128;50.016;20.002;2023-02-10T00:16:07;41.40;;;18.43;;
34920;SDS011;21128;50.016;20.002;2023-02-10T00:18:36;36.07;;;17.00;;
34920;SDS011;21128;50.016;20.002;2023-02-10T00:21:12;39.07;;;17.53;;
34920;SDS011;21128;50.016;20.002;2023-02-10T00:23:42;40.83;;;17.20;;
34920;SDS011;21128;50.016;20.002;2023-02-10T00:26:11;37.23;;;17.37;;
34920;SDS011;21128;50.016;20.002;2023-02-10T00:28:39;39.27;;;16.53;;
34920;SDS011;21128;50.016;20.002;2023-02-10T00:31:10;36.83;;;17.10;;
34920;SDS011;21128;50.016;20.002;2023-02-10T00:33:39;37.90;;;17.25;;
34920;SDS011;21128;50.016;20.002;2023-02-10T00:36:08;37.00;;;17.95;;
34920;SDS011;21128;50.016;20.002;2023-02-10T00:38:36;38.20;;;17.03;;
34920;SDS011;21128;50.016;20.002;2023-02-10T00:41:12;33.33;;;15.97;;
34920;SDS011;21128;50.016;20.002;2023-02-10T00:43:43;35.77;;;16.63;;
34920;SDS011;21128;50.016;20.002;2023-02-10T00:46:11;34.50;;;16.23;;
34920;SDS011;21128;50.016;20.002;2023-02-10T00:48:39;39.75;;;16.45;;
34920;SDS011;21128;50.016;20.002;2023-02-10T00:51:07;33.40;;;15.33;;
34920;SDS011;21128;50.016;20.002;2023-02-10T00:53:34;31.90;;;15.48;;
34920;SDS011;21128;50.016;20.002;2023-02-10T00:56:02;36.77;;;16.90;;
34920;SDS011;21128;50.016;20.002;2023-02-10T00:58:29;33.70;;;15.37;;
34920;SDS011;21128;50.016;20.002;2023-02-10T01:00:57;32.58;;;14.93;;
34920;SDS011;21128;50.016;20.002;2023-02-10T01:03:24;34.50;;;15.47;;
34920;SDS011;21128;50.016;20.002;2023-02-10T01:05:51;32.97;;;15.57;;
34920;SDS011;21128;50.016;20.002;2023-02-10T01:08:18;37.20;;;16.10;;
34920;SDS011;21128;50.016;20.002;2023-02-10T01:10:45;34.37;;;16.20;;
34920;SDS011;21128;50.016;20.002;2023-02-10T01:13:13;34.33;;;16.90;;
34920;SDS011;21128;50.016;20.002;2023-02-10T01:15:45;32.87;;;15.37;;
34920;SDS011;21128;50.016;20.002;2023-02-10T01:18:13;33.40;;;15.60;;
34920;SDS011;21128;50.016;20.002;2023-02-10T01:20:40;31.03;;;16.00;;
34920;SDS011;21128;50.016;20.002;2023-02-10T01:23:09;33.75;;;16.50;;
34920;SDS011;21128;50.016;20.002;2023-02-10T01:25:36;31.73;;;16.37;;
34920;SDS011;21128;50.016;20.002;2023-02-10T01:28:04;29.60;;;14.85;;
34920;SDS011;21128;50.016;20.002;2023-02-10T01:30:32;32.87;;;15.43;;
34920;SDS011;21128;50.016;20.002;2023-02-10T01:32:59;36.47;;;15.40;;
34920;SDS011;21128;50.016;20.002;2023-02-10T01:35:26;32.33;;;15.20;;
34920;SDS011;21128;50.016;20.002;2023-02-10T01:37:53;36.80;;;16.20;;
34920;SDS011;21128;50.016;20.002;2023-02-10T01:40:24;33.10;;;15.13;;
34920;SDS011;21128;50.016;20.002;2023-02-10T01:42:52;31.43;;;15.50;;
34920;SDS011;21128;50.016;20.002;2023-02-10T01:45:20;31.37;;;15.70;;
34920;SDS011;21128;50.016;20.002;2023-02-10T01:47:59;35.87;;;15.60;;
34920;SDS011;21128;50.016;20.002;2023-02-10T01:50:29;34.60;;;15.47;;
34920;SDS011;21128;50.016;20.002;2023-02-10T01:53:01;33.93;;;15.33;;
34920;SDS011;21128;50.016;20.002;2023-02-10T01:55:30;29.80;;;13.37;;
34920;SDS011;21128;50.016;20.002;2023-02-10T01:58:02;33.53;;;14.57;;
34920;SDS011;21128;50.016;20.002;2023-02-10T02:00:33;30.93;;;14.23;;
34920;SDS011;21128;50.016;20.002;2023-02-10T02:03:02;29.23;;;14.40;;
34920;SDS011;21128;50.016;20.002;2023-02-10T02:05:32;31.93;;;14.97;;
34920;SDS011;21128;50.016;20.002;2023-02-10T02:08:06;27.53;;;13.67;;
34920;SDS011;21128;50.016;20.002;2023-02-10T02:10:43;30.67;;;13.70;;
34920;SDS011;21128;50.016;20.002;2023-02-10T02:13:20;31.40;;;13.63;;
34920;SDS011;21128;50.016;20.002;2023-02-10T02:27:01;27.80;;;13.17;;
34920;SDS011;21128;50.016;20.002;2023-02-10T02:32:27;32.23;;;14.93;;
34920;SDS011;21128;50.016;20.002;2023-02-10T02:35:02;29.25;;;14.45;;
34920;SDS011;21128;50.016;20.002;2023-02-10T02:37:43;29.30;;;14.57;;
34920;SDS011;21128;50.016;20.002;2023-02-10T02:40:13;32.60;;;14.27;;
34920;SDS011;21128;50.016;20.002;2023-02-10T02:42:42;26.13;;;12.60;;
34920;SDS011;21128;50.016;20.002;2023-02-10T02:45:14;30.40;;;13.67;;
34920;SDS011;21128;50.016;20.002;2023-02-10T02:47:57;27.40;;;14.77;;
34920;SDS011;21128;50.016;20.002;2023-02-10T02:58:31;27.90;;;13.90;;
34920;SDS011;21128;50.016;20.002;2023-02-10T03:01:25;25.03;;;12.47;;
34920;SDS011;21128;50.016;20.002;2023-02-10T03:03:57;29.13;;;13.57;;
34920;SDS011;21128;50.016;20.002;2023-02-10T03:06:25;28.83;;;13.27;;
34920;SDS011;21128;50.016;20.002;2023-02-10T03:08:52;31.37;;;13.55;;
34920;SDS011;21128;50.016;20.002;2023-02-10T03:11:20;29.12;;;13.48;;
34920;SDS011;21128;50.016;20.002;2023-02-10T03:13:47;28.13;;;13.53;;
34920;SDS011;21128;50.016;20.002;2023-02-10T03:16:14;28.70;;;14.03;;
34920;SDS011;21128;50.016;20.002;2023-02-10T03:18:41;33.70;;;15.30;;
34920;SDS011;21128;50.016;20.002;2023-02-10T03:21:08;33.95;;;15.08;;
34920;SDS011;21128;50.016;20.002;2023-02-10T03:23:35;26.53;;;13.87;;
34920;SDS011;21128;50.016;20.002;2023-02-10T03:26:02;29.20;;;14.57;;
34920;SDS011;21128;50.016;20.002;2023-02-10T03:28:29;29.57;;;14.83;;
34920;SDS011;21128;50.016;20.002;2023-02-10T03:30:56;28.55;;;14.28;;
34920;SDS011;21128;50.016;20.002;2023-02-10T03:33:23;27.33;;;12.80;;
34920;SDS011;21128;50.016;20.002;2023-02-10T03:35:50;25.65;;;13.90;;
34920;SDS011;21128;50.016;20.002;2023-02-10T03:38:17;25.13;;;12.67;;
34920;SDS011;21128;50.016;20.002;2023-02-10T03:40:48;24.90;;;12.73;;
34920;SDS011;21128;50.016;20.002;2023-02-10T03:43:17;28.40;;;13.10;;
34920;SDS011;21128;50.016;20.002;2023-02-10T03:45:44;27.57;;;13.10;;
34920;SDS011;21128;50.016;20.002;2023-02-10T03:48:12;25.03;;;12.90;;
34920;SDS011;21128;50.016;20.002;2023-02-10T03:50:39;24.43;;;12.20;;
34920;SDS011;21128;50.016;20.002;2023-02-10T03:53:06;28.97;;;13.73;;
34920;SDS011;21128;50.016;20.002;2023-02-10T03:55:34;26.20;;;12.07;;
34920;SDS011;21128;50.016;20.002;2023-02-10T03:58:01;27.77;;;12.33;;
34920;SDS011;21128;50.016;20.002;2023-02-10T04:00:29;24.23;;;13.13;;
34920;SDS011;21128;50.016;20.002;2023-02-10T04:02:56;26.67;;;12.97;;
34920;SDS011;21128;50.016;20.002;2023-02-10T04:05:24;25.70;;;13.80;;
34920;SDS011;21128;50.016;20.002;2023-02-10T04:07:51;26.02;;;12.73;;
34920;SDS011;21128;50.016;20.002;2023-02-10T04:10:18;32.90;;;15.50;;
34920;SDS011;21128;50.016;20.002;2023-02-10T04:12:47;31.27;;;14.97;;
34920;SDS011;21128;50.016;20.002;2023-02-10T04:15:15;31.17;;;16.27;;
34920;SDS011;21128;50.016;20.002;2023-02-10T04:17:42;29.93;;;15.27;;
34920;SDS011;21128;50.016;20.002;2023-02-10T04:20:09;27.13;;;14.90;;
34920;SDS011;21128;50.016;20.002;2023-02-10T04:22:37;32.10;;;13.97;;
34920;SDS011;21128;50.016;20.002;2023-02-10T04:25:04;35.23;;;15.98;;
34920;SDS011;21128;50.016;20.002;2023-02-10T04:27:32;34.60;;;17.23;;
34920;SDS011;21128;50.016;20.002;2023-02-10T04:29:59;32.23;;;15.90;;
34920;SDS011;21128;50.016;20.002;2023-02-10T04:32:26;35.88;;;15.78;;
34920;SDS011;21128;50.016;20.002;2023-02-10T04:34:53;29.97;;;15.80;;
34920;SDS011;21128;50.016;20.002;2023-02-10T04:37:20;32.63;;;16.20;;
34920;SDS011;21128;50.016;20.002;2023-02-10T04:39:47;30.77;;;15.37;;
34920;SDS011;21128;50.016;20.002;2023-02-10T04:42:14;33.10;;;14.58;;
34920;SDS011;21128;50.016;20.002;2023-02-10T04:44:41;34.75;;;17.30;;
34920;SDS011;21128;50.016;20.002;2023-02-10T04:47:08;34.20;;;17.27;;
34920;SDS011;21128;50.016;20.002;2023-02-10T04:49:35;33.60;;;16.53;;
34920;SDS011;21128;50.016;20.002;2023-02-10T04:52:02;35.75;;;17.27;;
34920;SDS011;21128;50.016;20.002;2023-02-10T04:54:29;37.50;;;17.73;;
34920;SDS011;21128;50.016;20.002;2023-02-10T04:56:56;37.80;;;18.30;;
34920;SDS011;21128;50.016;20.002;2023-02-10T04:59:23;39.25;;;17.95;;
34920;SDS011;21128;50.016;20.002;2023-02-10T05:01:50;42.37;;;18.80;;
34920;SDS011;21128;50.016;20.002;2023-02-10T05:04:17;42.77;;;19.73;;
34920;SDS011;21128;50.016;20.002;2023-02-10T05:06:43;48.58;;;21.27;;
34920;SDS011;21128;50.016;20.002;2023-02-10T05:09:10;43.47;;;21.87;;
34920;SDS011;21128;50.016;20.002;2023-02-10T05:11:37;46.33;;;22.40;;
34920;SDS011;21128;50.016;20.002;2023-02-10T05:14:05;44.50;;;22.45;;
34920;SDS011;21128;50.016;20.002;2023-02-10T05:16:32;46.20;;;23.97;;
34920;SDS011;21128;50.016;20.002;2023-02-10T05:18:59;44.95;;;22.70;;
34920;SDS011;21128;50.016;20.002;2023-02-10T05:21:26;54.80;;;24.43;;
34920;SDS011;21128;50.016;20.002;2023-02-10T05:23:53;54.90;;;24.20;;
34920;SDS011;21128;50.016;20.002;2023-02-10T05:26:20;59.57;;;24.87;;
34920;SDS011;21128;50.016;20.002;2023-02-10T05:28:47;57.13;;;26.10;;
34920;SDS011;21128;50.016;20.002;2023-02-10T05:31:14;49.77;;;24.63;;
34920;SDS011;21128;50.016;20.002;2023-02-10T05:33:41;53.97;;;26.10;;
34920;SDS011;21128;50.016;20.002;2023-02-10T05:36:08;61.30;;;25.23;;
34920;SDS011;21128;50.016;20.002;2023-02-10T05:38:35;50.30;;;25.27;;
34920;SDS011;21128;50.016;20.002;2023-02-10T05:41:02;64.42;;;27.62;;
34920;SDS011;21128;50.016;20.002;2023-02-10T05:43:30;64.20;;;27.43;;
34920;SDS011;21128;50.016;20.002;2023-02-10T05:45:57;61.53;;;27.58;;
34920;SDS011;21128;50.016;20.002;2023-02-10T05:48:24;64.73;;;28.40;;
34920;SDS011;21128;50.016;20.002;2023-02-10T05:50:51;64.53;;;29.03;;
34920;SDS011;21128;50.016;20.002;2023-02-10T05:53:18;69.60;;;30.17;;
34920;SDS011;21128;50.016;20.002;2023-02-10T05:55:45;70.13;;;29.90;;
34920;SDS011;21128;50.016;20.002;2023-02-10T05:58:12;72.40;;;30.20;;
34920;SDS011;21128;50.016;20.002;2023-02-10T06:00:39;69.83;;;28.70;;
34920;SDS011;21128;50.016;20.002;2023-02-10T06:03:06;63.60;;;28.63;;
34920;SDS011;21128;50.016;20.002;2023-02-10T06:05:33;73.20;;;30.63;;
34920;SDS011;21128;50.016;20.002;2023-02-10T06:08:00;63.53;;;30.30;;
34920;SDS011;21128;50.016;20.002;2023-02-10T06:10:27;70.87;;;29.48;;
34920;SDS011;21128;50.016;20.002;2023-02-10T06:12:54;79.53;;;30.50;;
34920;SDS011;21128;50.016;20.002;2023-02-10T06:15:21;68.25;;;28.50;;
34920;SDS011;21128;50.016;20.002;2023-02-10T06:17:48;69.15;;;29.32;;
34920;SDS011;21128;50.016;20.002;2023-02-10T06:20:15;72.33;;;29.83;;
34920;SDS011;21128;50.016;20.002;2023-02-10T06:22:42;70.70;;;28.50;;
34920;SDS011;21128;50.016;20.002;2023-02-10T06:25:09;66.70;;;30.00;;
34920;SDS011;21128;50.016;20.002;2023-02-10T06:27:36;67.40;;;31.75;;
34920;SDS011;21128;50.016;20.002;2023-02-10T06:30:03;64.37;;;31.03;;
34920;SDS011;21128;50.016;20.002;2023-02-10T06:32:30;67.87;;;31.20;;
34920;SDS011;21128;50.016;20.002;2023-02-10T06:34:57;60.03;;;29.00;;
34920;SDS011;21128;50.016;20.002;2023-02-10T06:37:24;62.95;;;30.45;;
34920;SDS011;21128;50.016;20.002;2023-02-10T06:39:51;65.57;;;29.70;;
34920;SDS011;21128;50.016;20.002;2023-02-10T06:42:18;58.03;;;27.60;;
34920;SDS011;21128;50.016;20.002;2023-02-10T06:44:45;66.57;;;30.85;;
34920;SDS011;21128;50.016;20.002;2023-02-10T06:47:12;67.05;;;31.60;;
34920;SDS011;21128;50.016;20.002;2023-02-10T06:49:39;75.07;;;30.97;;
34920;SDS011;21128;50.016;20.002;2023-02-10T06:52:06;73.37;;;30.80;;
34920;SDS011;21128;50.016;20.002;2023-02-10T06:54:33;67.17;;;31.37;;
34920;SDS011;21128;50.016;20.002;2023-02-10T06:57:00;79.13;;;31.90;;
34920;SDS011;21128;50.016;20.002;2023-02-10T06:59:27;79.53;;;32.42;;
34920;SDS011;21128;50.016;20.002;2023-02-10T07:01:54;64.83;;;31.20;;
34920;SDS011;21128;50.016;20.002;2023-02-10T07:04:30;65.40;;;33.20;;
34920;SDS011;21128;50.016;20.002;2023-02-10T07:06:58;69.57;;;31.87;;
34920;SDS011;21128;50.016;20.002;2023-02-10T07:09:25;63.37;;;31.30;;
34920;SDS011;21128;50.016;20.002;2023-02-10T07:11:52;67.40;;;32.90;;
34920;SDS011;21128;50.016;20.002;2023-02-10T07:14:19;70.70;;;31.50;;
34920;SDS011;21128;50.016;20.002;2023-02-10T07:16:46;61.27;;;31.73;;
34920;SDS011;21128;50.016;20.002;2023-02-10T07:19:14;64.90;;;31.60;;
34920;SDS011;21128;50.016;20.002;2023-02-10T07:21:41;63.17;;;31.23;;
34920;SDS011;21128;50.016;20.002;2023-02-10T07:24:08;69.30;;;31.90;;
34920;SDS011;21128;50.016;20.002;2023-02-10T07:26:35;65.10;;;32.93;;
34920;SDS011;21128;50.016;20.002;2023-02-10T07:29:02;67.47;;;32.53;;
34920;SDS011;21128;50.016;20.002;2023-02-10T07:31:29;69.47;;;32.60;;
34920;SDS011;21128;50.016;20.002;2023-02-10T07:33:56;62.17;;;33.00;;
34920;SDS011;21128;50.016;20.002;2023-02-10T07:36:23;64.60;;;31.77;;
34920;SDS011;21128;50.016;20.002;2023-02-10T07:38:51;64.30;;;32.67;;
34920;SDS011;21128;50.016;20.002;2023-02-10T07:41:18;64.65;;;34.10;;
34920;SDS011;21128;50.016;20.002;2023-02-10T07:43:45;66.93;;;32.37;;
34920;SDS011;21128;50.016;20.002;2023-02-10T07:46:12;67.77;;;31.87;;
34920;SDS011;21128;50.016;20.002;2023-02-10T07:48:39;68.92;;;31.42;;
34920;SDS011;21128;50.016;20.002;2023-02-10T07:51:06;64.07;;;32.37;;
34920;SDS011;21128;50.016;20.002;2023-02-10T07:53:33;63.13;;;29.43;;
34920;SDS011;21128;50.016;20.002;2023-02-10T07:56:00;64.17;;;30.53;;
34920;SDS011;21128;50.016;20.002;2023-02-10T07:58:27;62.33;;;30.67;;
34920;SDS011;21128;50.016;20.002;2023-02-10T08:00:54;61.80;;;32.17;;
34920;SDS011;21128;50.016;20.002;2023-02-10T08:03:21;63.50;;;31.00;;
34920;SDS011;21128;50.016;20.002;2023-02-10T08:05:48;69.97;;;31.17;;
34920;SDS011;21128;50.016;20.002;2023-02-10T08:08:15;55.23;;;30.50;;
34920;SDS011;21128;50.016;20.002;2023-02-10T08:10:43;54.17;;;29.53;;
34920;SDS011;21128;50.016;20.002;2023-02-10T08:13:10;55.57;;;29.80;;
34920;SDS011;21128;50.016;20.002;2023-02-10T08:15:37;60.30;;;31.30;;
34920;SDS011;21128;50.016;20.002;2023-02-10T08:18:04;72.27;;;28.67;;
34920;SDS011;21128;50.016;20.002;2023-02-10T08:20:31;66.50;;;32.03;;
34920;SDS011;21128;50.016;20.002;2023-02-10T08:22:58;62.40;;;29.18;;
34920;SDS011;21128;50.016;20.002;2023-02-10T08:25:26;64.10;;;31.20;;
34920;SDS011;21128;50.016;20.002;2023-02-10T08:27:53;48.77;;;28.70;;
34920;SDS011;21128;50.016;20.002;2023-02-10T08:30:20;60.30;;;30.52;;
34920;SDS011;21128;50.016;20.002;2023-02-10T08:32:48;57.77;;;29.40;;
34920;SDS011;21128;50.016;20.002;2023-02-10T08:35:15;64.77;;;28.13;;
34920;SDS011;21128;50.016;20.002;2023-02-10T08:37:43;47.97;;;28.67;;
34920;SDS011;21128;50.016;20.002;2023-02-10T08:40:10;55.28;;;31.33;;
34920;SDS011;21128;50.016;20.002;2023-02-10T08:42:37;55.30;;;30.30;;
34920;SDS011;21128;50.016;20.002;2023-02-10T08:45:04;50.70;;;30.25;;
34920;SDS011;21128;50.016;20.002;2023-02-10T08:47:32;60.03;;;29.97;;
34920;SDS011;21128;50.016;20.002;2023-02-10T08:50:00;55.83;;;31.90;;
34920;SDS011;21128;50.016;20.002;2023-02-10T08:52:27;79.37;;;35.67;;
34920;SDS011;21128;50.016;20.002;2023-02-10T08:54:54;88.55;;;36.65;;
34920;SDS011;21128;50.016;20.002;2023-02-10T08:57:22;60.05;;;33.25;;
34920;SDS011;21128;50.016;20.002;2023-02-10T08:59:49;58.03;;;32.80;;
34920;SDS011;21128;50.016;20.002;2023-02-10T09:02:16;57.80;;;32.03;;
34920;SDS011;21128;50.016;20.002;2023-02-10T09:04:44;51.07;;;27.83;;
34920;SDS011;21128;50.016;20.002;2023-02-10T09:07:11;60.07;;;30.60;;
34920;SDS011;21128;50.016;20.002;2023-02-10T09:09:40;56.28;;;30.10;;
34920;SDS011;21128;50.016;20.002;2023-02-10T09:12:09;55.63;;;30.00;;
34920;SDS011;21128;50.016;20.002;2023-02-10T09:14:38;56.67;;;30.20;;
34920;SDS011;21128;50.016;20.002;2023-02-10T09:17:06;65.70;;;29.90;;
34920;SDS011;21128;50.016;20.002;2023-02-10T09:19:35;52.70;;;31.00;;
34920;SDS011;21128;50.016;20.002;2023-02-10T09:22:03;61.53;;;32.13;;
34920;SDS011;21128;50.016;20.002;2023-02-10T09:24:32;61.17;;;31.77;;
34920;SDS011;21128;50.016;20.002;2023-02-10T09:26:59;55.70;;;32.63;;
34920;SDS011;21128;50.016;20.002;2023-02-10T09:29:27;59.70;;;33.13;;
34920;SDS011;21128;50.016;20.002;2023-02-10T09:31:54;67.10;;;32.93;;
34920;SDS011;21128;50.016;20.002;2023-02-10T09:34:21;55.50;;;31.27;;
34920;SDS011;21128;50.016;20.002;2023-02-10T09:36:48;57.67;;;31.00;;
34920;SDS011;21128;50.016;20.002;2023-02-10T09:39:15;55.73;;;30.70;;
34920;SDS011;21128;50.016;20.002;2023-02-10T09:41:48;59.23;;;28.30;;
34920;SDS011;21128;50.016;20.002;2023-02-10T09:44:23;64.33;;;30.67;;
34920;SDS011;21128;50.016;20.002;2023-02-10T09:47:06;59.80;;;31.27;;
34920;SDS011;21128;50.016;20.002;2023-02-10T10:00:58;59.20;;;30.23;;
34920;SDS011;21128;50.016;20.002;2023-02-10T10:03:38;48.53;;;28.90;;
34920;SDS011;21128;50.016;20.002;2023-02-10T10:14:01;43.13;;;25.67;;
34920;SDS011;21128;50.016;20.002;2023-02-10T10:22:36;52.60;;;27.70;;
34920;SDS011;21128;50.016;20.002;2023-02-10T10:31:01;50.80;;;27.43;;
34920;SDS011;21128;50.016;20.002;2023-02-10T10:36:15;53.57;;;26.23;;
34920;SDS011;21128;50.016;20.002;2023-02-10T10:41:45;62.63;;;27.47;;
34920;SDS011;21128;50.016;20.002;2023-02-10T10:44:15;49.37;;;26.87;;
34920;SDS011;21128;50.016;20.002;2023-02-10T10:46:48;49.60;;;26.20;;
34920;SDS011;21128;50.016;20.002;2023-02-10T10:49:19;46.10;;;22.83;;
34920;SDS011;21128;50.016;20.002;2023-02-10T10:51:46;44.03;;;23.47;;
34920;SDS011;21128;50.016;20.002;2023-02-10T10:54:15;44.37;;;24.20;;
34920;SDS011;21128;50.016;20.002;2023-02-10T10:59:34;39.70;;;23.57;;
34920;SDS011;21128;50.016;20.002;2023-02-10T11:04:45;42.27;;;23.97;;
34920;SDS011;21128;50.016;20.002;2023-02-10T11:07:19;41.90;;;23.95;;
34920;SDS011;21128;50.016;20.002;2023-02-10T11:09:50;44.07;;;24.37;;
34920;SDS011;21128;50.016;20.002;2023-02-10T11:14:48;49.97;;;23.87;;
34920;SDS011;21128;50.016;20.002;2023-02-10T11:19:57;42.60;;;23.00;;
34920;SDS011;21128;50.016;20.002;2023-02-10T11:22:29;52.23;;;24.50;;
34920;SDS011;21128;50.016;20.002;2023-02-10T11:24:58;42.23;;;23.57;;
34920;SDS011;21128;50.016;20.002;2023-02-10T11:27:27;46.13;;;22.60;;
34920;SDS011;21128;50.016;20.002;2023-02-10T11:29:55;37.65;;;23.30;;
34920;SDS011;21128;50.016;20.002;2023-02-10T11:32:25;47.33;;;22.43;;
34920;SDS011;21128;50.016;20.002;2023-02-10T11:34:59;39.67;;;22.50;;
34920;SDS011;21128;50.016;20.002;2023-02-10T11:37:30;54.20;;;23.97;;
34920;SDS011;21128;50.016;20.002;2023-02-10T11:40:24;46.00;;;22.33;;
34920;SDS011;21128;50.016;20.002;2023-02-10T11:42:57;35.30;;;20.33;;
34920;SDS011;21128;50.016;20.002;2023-02-10T11:45:29;39.23;;;18.83;;
34920;SDS011;21128;50.016;20.002;2023-02-10T11:50:43;37.60;;;18.13;;
34920;SDS011;21128;50.016;20.002;2023-02-10T11:53:24;33.67;;;19.20;;
34920;SDS011;21128;50.016;20.002;2023-02-10T11:55:58;30.30;;;16.97;;
34920;SDS011;21128;50.016;20.002;2023-02-10T12:04:19;25.23;;;16.07;;
34920;SDS011;21128;50.016;20.002;2023-02-10T12:07:23;17.90;;;11.30;;
34920;SDS011;21128;50.016;20.002;2023-02-10T12:09:58;32.37;;;16.97;;
34920;SDS011;21128;50.016;20.002;2023-02-10T12:12:34;32.70;;;15.83;;
34920;SDS011;21128;50.016;20.002;2023-02-10T12:15:16;36.67;;;16.40;;
34920;SDS011;21128;50.016;20.002;2023-02-10T12:17:56;33.17;;;17.43;;
34920;SDS011;21128;50.016;20.002;2023-02-10T12:20:43;31.13;;;17.53;;
34920;SDS011;21128;50.016;20.002;2023-02-10T12:26:01;29.83;;;16.83;;
34920;SDS011;21128;50.016;20.002;2023-02-10T12:39:46;31.13;;;18.07;;
34920;SDS011;21128;50.016;20.002;2023-02-10T12:45:19;37.93;;;19.57;;
34920;SDS011;21128;50.016;20.002;2023-02-10T12:48:09;31.43;;;19.03;;
34920;SDS011;21128;50.016;20.002;2023-02-10T12:50:55;29.57;;;18.20;;
34920;SDS011;21128;50.016;20.002;2023-02-10T12:53:37;37.37;;;19.57;;
34920;SDS011;21128;50.016;20.002;2023-02-10T12:58:50;32.65;;;18.50;;
34920;SDS011;21128;50.016;20.002;2023-02-10T13:03:53;36.60;;;19.83;;
34920;SDS011;21128;50.016;20.002;2023-02-10T13:06:44;33.70;;;19.10;;
34920;SDS011;21128;50.016;20.002;2023-02-10T13:14:39;33.97;;;19.77;;
34920;SDS011;21128;50.016;20.002;2023-02-10T13:17:08;36.43;;;19.97;;
34920;SDS011;21128;50.016;20.002;2023-02-10T13:32:52;36.67;;;21.57;;
34920;SDS011;21128;50.016;20.002;2023-02-10T13:37:57;32.93;;;19.30;;
34920;SDS011;21128;50.016;20.002;2023-02-10T13:40:27;30.43;;;17.77;;
34920;SDS011;21128;50.016;20.002;2023-02-10T13:43:27;31.97;;;18.10;;
34920;SDS011;21128;50.016;20.002;2023-02-10T13:45:58;29.07;;;16.97;;
34920;SDS011;21128;50.016;20.002;2023-02-10T13:48:27;35.07;;;17.90;;
34920;SDS011;21128;50.016;20.002;2023-02-10T13:51:01;31.23;;;18.43;;
34920;SDS011;21128;50.016;20.002;2023-02-10T14:06:49;25.30;;;16.93;;
34920;SDS011;21128;50.016;20.002;2023-02-10T14:11:58;32.73;;;19.50;;
34920;SDS011;21128;50.016;20.002;2023-02-10T14:14:36;32.20;;;17.93;;
34920;SDS011;21128;50.016;20.002;2023-02-10T14:19:40;40.00;;;22.75;;
34920;SDS011;21128;50.016;20.002;2023-02-10T14:28:02;30.80;;;18.53;;
34920;SDS011;21128;50.016;20.002;2023-02-10T14:30:39;30.47;;;18.83;;
34920;SDS011;21128;50.016;20.002;2023-02-10T14:33:29;29.40;;;17.23;;
34920;SDS011;21128;50.016;20.002;2023-02-10T14:35:59;32.07;;;18.93;;
34920;SDS011;21128;50.016;20.002;2023-02-10T14:38:30;37.93;;;18.60;;
34920;SDS011;21128;50.016;20.002;2023-02-10T14:41:02;35.90;;;19.50;;
34920;SDS011;21128;50.016;20.002;2023-02-10T14:43:31;36.63;;;19.17;;
34920;SDS011;21128;50.016;20.002;2023-02-10T14:46:02;38.58;;;20.32;;
34920;SDS011;21128;50.016;20.002;2023-02-10T14:48:30;36.60;;;20.40;;
34920;SDS011;21128;50.016;20.002;2023-02-10T14:50:59;38.77;;;20.20;;
34920;SDS011;21128;50.016;20.002;2023-02-10T14:53:34;33.07;;;20.37;;
34920;SDS011;21128;50.016;20.002;2023-02-10T14:56:03;34.80;;;20.10;;
34920;SDS011;21128;50.016;20.002;2023-02-10T14:58:31;35.60;;;20.07;;
34920;SDS011;21128;50.016;20.002;2023-02-10T15:03:34;40.50;;;21.10;;
34920;SDS011;21128;50.016;20.002;2023-02-10T15:06:02;39.27;;;22.30;;
34920;SDS011;21128;50.016;20.002;2023-02-10T15:08:42;39.27;;;22.17;;
34920;SDS011;21128;50.016;20.002;2023-02-10T15:11:18;39.43;;;22.70;;
34920;SDS011;21128;50.016;20.002;2023-02-10T15:14:13;41.70;;;23.95;;
34920;SDS011;21128;50.016;20.002;2023-02-10T15:16:47;48.90;;;24.40;;
34920;SDS011;21128;50.016;20.002;2023-02-10T15:19:16;42.33;;;24.50;;
34920;SDS011;21128;50.016;20.002;2023-02-10T15:21:45;42.03;;;24.80;;
34920;SDS011;21128;50.016;20.002;2023-02-10T15:24:17;41.73;;;24.60;;
34920;SDS011;21128;50.016;20.002;2023-02-10T15:26:46;41.07;;;25.53;;
34920;SDS011;21128;50.016;20.002;2023-02-10T15:29:14;46.83;;;27.30;;
34920;SDS011;21128;50.016;20.002;2023-02-10T15:31:53;54.30;;;28.77;;
34920;SDS011;21128;50.016;20.002;2023-02-10T15:34:27;54.53;;;27.77;;
34920;SDS011;21128;50.016;20.002;2023-02-10T15:39:27;46.75;;;26.48;;
34920;SDS011;21128;50.016;20.002;2023-02-10T15:49:48;42.50;;;23.47;;
34920;SDS011;21128;50.016;20.002;2023-02-10T15:52:32;45.40;;;23.83;;
34920;SDS011;21128;50.016;20.002;2023-02-10T15:57:44;35.83;;;21.43;;
34920;SDS011;21128;50.016;20.002;2023-02-10T16:02:58;37.67;;;21.60;;
34920;SDS011;21128;50.016;20.002;2023-02-10T16:05:26;33.77;;;21.33;;
34920;SDS011;21128;50.016;20.002;2023-02-10T16:08:01;35.77;;;21.10;;
34920;SDS011;21128;50.016;20.002;2023-02-10T16:10:48;42.70;;;23.67;;
34920;SDS011;21128;50.016;20.002;2023-02-10T16:13:16;42.40;;;21.30;;
34920;SDS011;21128;50.016;20.002;2023-02-10T16:15:46;42.80;;;21.25;;
34920;SDS011;21128;50.016;20.002;2023-02-10T16:18:19;43.83;;;22.80;;
34920;SDS011;21128;50.016;20.002;2023-02-10T16:20:49;40.70;;;23.67;;
34920;SDS011;21128;50.016;20.002;2023-02-10T16:23:18;43.67;;;22.83;;
34920;SDS011;21128;50.016;20.002;2023-02-10T16:25:46;44.57;;;24.50;;
34920;SDS011;21128;50.016;20.002;2023-02-10T16:28:15;41.40;;;23.63;;
34920;SDS011;21128;50.016;20.002;2023-02-10T16:30:44;44.67;;;24.10;;
34920;SDS011;21128;50.016;20.002;2023-02-10T16:33:13;43.57;;;25.97;;
34920;SDS011;21128;50.016;20.002;2023-02-10T16:36:10;41.97;;;25.13;;
34920;SDS011;21128;50.016;20.002;2023-02-10T16:38:59;49.23;;;26.70;;
34920;SDS011;21128;50.016;20.002;2023-02-10T16:41:46;46.90;;;26.37;;
34920;SDS011;21128;50.016;20.002;2023-02-10T16:44:33;55.47;;;28.00;;
34920;SDS011;21128;50.016;20.002;2023-02-10T16:47:20;52.47;;;26.90;;
34920;SDS011;21128;50.016;20.002;2023-02-10T16:50:06;50.37;;;28.03;;
34920;SDS011;21128;50.016;20.002;2023-02-10T16:53:02;45.40;;;28.07;;
34920;SDS011;21128;50.016;20.002;2023-02-10T16:55:49;48.70;;;27.97;;
34920;SDS011;21128;50.016;20.002;2023-02-10T16:58:35;53.33;;;29.20;;
34920;SDS011;21128;50.016;20.002;2023-02-10T17:01:21;56.27;;;29.90;;
34920;SDS011;21128;50.016;20.002;2023-02-10T17:04:06;52.23;;;29.37;;
34920;SDS011;21128;50.016;20.002;2023-02-10T17:06:52;56.70;;;28.77;;
34920;SDS011;21128;50.016;20.002;2023-02-10T17:09:39;54.50;;;30.47;;
34920;SDS011;21128;50.016;20.002;2023-02-10T17:12:25;55.73;;;30.03;;